sensor_id;sensor_type;location;lat;lon;timestamp;pressure;altitude;pressure_sealevel;temperature;humidity
72086;BME280;64750;52.134;5.424;2023-02-21T00:02:14;102246.38;;;8.14;91.83
72086;BME280;64750;52.134;5.424;2023-02-21T00:04:59;102242.88;;;8.15;92.06
72086;BME280;64750;52.134;5.424;2023-02-21T00:07:44;102238.53;;;8.14;92.09
72086;BME280;64750;52.134;5.424;2023-02-21T00:10:29;102235.91;;;8.14;91.88
72086;BME280;64750;52.134;5.424;2023-02-21T00:13:14;102231.56;;;8.13;92.25
72086;BME280;64750;52.134;5.424;2023-02-21T00:15:59;102228.03;;;8.14;92.23
72086;BME280;64750;52.134;5.424;2023-02-21T00:18:43;102229.78;;;8.14;92.02
72086;BME280;64750;52.134;5.424;2023-02-21T00:21:29;102235.91;;;8.14;92.02
72086;BME280;64750;52.134;5.424;2023-02-21T00:24:15;102242.03;;;8.13;92.05
72086;BME280;64750;52.134;5.424;2023-02-21T00:27:01;102238.56;;;8.13;91.88
72086;BME280;64750;52.134;5.424;2023-02-21T00:29:48;102234.19;;;8.13;92.08
72086;BME280;64750;52.134;5.424;2023-02-21T00:32:33;102241.13;;;8.14;91.88
72086;BME280;64750;52.134;5.424;2023-02-21T00:35:18;102241.13;;;8.14;92.04
72086;BME280;64750;52.134;5.424;2023-02-21T00:38:04;102239.38;;;8.15;92.28
72086;BME280;64750;52.134;5.424;2023-02-21T00:40:51;102246.38;;;8.14;92.28
72086;BME280;64750;52.134;5.424;2023-02-21T00:43:37;102238.53;;;8.14;92.40
72086;BME280;64750;52.134;5.424;2023-02-21T00:46:22;102238.56;;;8.13;92.04
72086;BME280;64750;52.134;5.424;2023-02-21T00:49:07;102244.66;;;8.13;92.12
72086;BME280;64750;52.134;5.424;2023-02-21T00:51:52;102240.31;;;8.12;92.52
72086;BME280;64750;52.134;5.424;2023-02-21T00:54:37;102235.97;;;8.11;92.32
72086;BME280;64750;52.134;5.424;2023-02-21T00:57:22;102234.19;;;8.13;92.58
72086;BME280;64750;52.134;5.424;2023-02-21T01:00:14;102228.94;;;8.13;92.26
72086;BME280;64750;52.134;5.424;2023-02-21T01:02:59;102218.47;;;8.13;92.56
72086;BME280;64750;52.134;5.424;2023-02-21T01:05:43;102223.69;;;8.13;92.58
72086;BME280;64750;52.134;5.424;2023-02-21T01:08:29;102221.19;;;8.10;92.12
72086;BME280;64750;52.134;5.424;2023-02-21T01:11:16;102215.94;;;8.10;92.62
72086;BME280;64750;52.134;5.424;2023-02-21T01:14:01;102218.56;;;8.10;92.20
72086;BME280;64750;52.134;5.424;2023-02-21T01:16:47;102211.59;;;8.09;92.17
72086;BME280;64750;52.134;5.424;2023-02-21T01:19:39;102209.88;;;8.08;92.61
72086;BME280;64750;52.134;5.424;2023-02-21T01:22:24;102215.97;;;8.09;92.62
72086;BME280;64750;52.134;5.424;2023-02-21T01:25:09;102218.56;;;8.10;92.73
72086;BME280;64750;52.134;5.424;2023-02-21T01:27:54;102205.47;;;8.09;92.55
72086;BME280;64750;52.134;5.424;2023-02-21T01:30:39;102203.75;;;8.09;92.65
72086;BME280;64750;52.134;5.424;2023-02-21T01:33:24;102216.84;;;8.09;92.62
72086;BME280;64750;52.134;5.424;2023-02-21T01:36:09;102202.06;;;8.07;92.74
72086;BME280;64750;52.134;5.424;2023-02-21T01:38:54;102203.78;;;8.08;92.77
72086;BME280;64750;52.134;5.424;2023-02-21T01:41:39;102196.78;;;8.08;92.38
72086;BME280;64750;52.134;5.424;2023-02-21T01:44:39;102196.78;;;8.08;92.96
72086;BME280;64750;52.134;5.424;2023-02-21T01:47:25;102193.28;;;8.09;92.92
72086;BME280;64750;52.134;5.424;2023-02-21T01:50:25;102203.69;;;8.11;92.46
72086;BME280;64750;52.134;5.424;2023-02-21T01:53:21;102205.41;;;8.12;92.98
72086;BME280;64750;52.134;5.424;2023-02-21T01:56:07;102194.06;;;8.11;92.69
72086;BME280;64750;52.134;5.424;2023-02-21T01:58:56;102197.56;;;8.12;92.52
72086;BME280;64750;52.134;5.424;2023-02-21T02:01:52;102194.06;;;8.11;92.58
72086;BME280;64750;52.134;5.424;2023-02-21T02:04:38;102192.38;;;8.10;92.77
72086;BME280;64750;52.134;5.424;2023-02-21T02:07:24;102190.66;;;8.09;92.60
72086;BME280;64750;52.134;5.424;2023-02-21T02:10:10;102184.53;;;8.10;92.76
72086;BME280;64750;52.134;5.424;2023-02-21T02:13:09;102192.38;;;8.10;92.82
72086;BME280;64750;52.134;5.424;2023-02-21T02:18:44;102185.31;;;8.12;92.85
72086;BME280;64750;52.134;5.424;2023-02-21T02:26:59;102183.53;;;8.14;92.96
72086;BME280;64750;52.134;5.424;2023-02-21T02:38:45;102179.13;;;8.15;92.58
72086;BME280;64750;52.134;5.424;2023-02-21T02:46:58;102179.09;;;8.16;92.56
72086;BME280;64750;52.134;5.424;2023-02-21T02:49:28;102189.56;;;8.16;92.68
72086;BME280;64750;52.134;5.424;2023-02-21T02:52:02;102191.34;;;8.16;92.86
72086;BME280;64750;52.134;5.424;2023-02-21T02:54:29;102190.44;;;8.17;92.63
72086;BME280;64750;52.134;5.424;2023-02-21T02:56:55;102196.53;;;8.17;92.50
72086;BME280;64750;52.134;5.424;2023-02-21T02:59:24;102192.16;;;8.18;92.55
72086;BME280;64750;52.134;5.424;2023-02-21T03:05:29;102190.38;;;8.18;92.76
72086;BME280;64750;52.134;5.424;2023-02-21T03:11:01;102181.75;;;8.15;92.53
72086;BME280;64750;52.134;5.424;2023-02-21T03:13:54;102180.00;;;8.15;92.62
72086;BME280;64750;52.134;5.424;2023-02-21T03:16:28;102175.66;;;8.14;92.67
72086;BME280;64750;52.134;5.424;2023-02-21T03:19:06;102179.13;;;8.15;92.62
72086;BME280;64750;52.134;5.424;2023-02-21T03:21:40;102174.84;;;8.12;92.67
72086;BME280;64750;52.134;5.424;2023-02-21T03:24:09;102181.75;;;8.15;92.75
72086;BME280;64750;52.134;5.424;2023-02-21T03:26:40;102180.00;;;8.15;93.05
72086;BME280;64750;52.134;5.424;2023-02-21T03:29:07;102178.25;;;8.16;93.00
72086;BME280;64750;52.134;5.424;2023-02-21T03:31:40;102177.38;;;8.15;92.91
72086;BME280;64750;52.134;5.424;2023-02-21T03:34:08;102174.78;;;8.15;93.11
72086;BME280;64750;52.134;5.424;2023-02-21T03:36:36;102173.03;;;8.14;93.17
72086;BME280;64750;52.134;5.424;2023-02-21T03:39:04;102178.28;;;8.14;93.26
72086;BME280;64750;52.134;5.424;2023-02-21T03:41:30;102179.13;;;8.15;93.26
72086;BME280;64750;52.134;5.424;2023-02-21T03:43:57;102176.47;;;8.16;93.26
72086;BME280;64750;52.134;5.424;2023-02-21T03:46:23;102176.47;;;8.16;93.14
72086;BME280;64750;52.134;5.424;2023-02-21T03:48:50;102167.81;;;8.14;93.08
72086;BME280;64750;52.134;5.424;2023-02-21T03:51:16;102168.66;;;8.15;92.94
72086;BME280;64750;52.134;5.424;2023-02-21T03:53:43;102172.09;;;8.17;93.26
72086;BME280;64750;52.134;5.424;2023-02-21T03:56:09;102171.22;;;8.16;92.95
72086;BME280;64750;52.134;5.424;2023-02-21T03:58:35;102173.84;;;8.16;93.31
72086;BME280;64750;52.134;5.424;2023-02-21T04:01:03;102167.72;;;8.17;93.17
72086;BME280;64750;52.134;5.424;2023-02-21T04:03:30;102160.75;;;8.16;93.01
72086;BME280;64750;52.134;5.424;2023-02-21T04:05:56;102164.28;;;8.15;93.08
72086;BME280;64750;52.134;5.424;2023-02-21T04:08:23;102168.59;;;8.16;93.12
72086;BME280;64750;52.134;5.424;2023-02-21T04:10:49;102171.22;;;8.16;92.95
72086;BME280;64750;52.134;5.424;2023-02-21T04:13:18;102177.34;;;8.17;93.17
72086;BME280;64750;52.134;5.424;2023-02-21T04:15:45;102173.81;;;8.18;93.25
72086;BME280;64750;52.134;5.424;2023-02-21T04:18:11;102170.28;;;8.19;93.48
72086;BME280;64750;52.134;5.424;2023-02-21T04:20:38;102176.41;;;8.19;92.98
72086;BME280;64750;52.134;5.424;2023-02-21T04:23:04;102165.91;;;8.19;93.38
72086;BME280;64750;52.134;5.424;2023-02-21T04:25:30;102169.44;;;8.18;93.26
72086;BME280;64750;52.134;5.424;2023-02-21T04:27:57;102162.47;;;8.17;93.19
72086;BME280;64750;52.134;5.424;2023-02-21T04:30:23;102167.72;;;8.17;93.16
72086;BME280;64750;52.134;5.424;2023-02-21T04:32:50;102160.75;;;8.16;93.07
72086;BME280;64750;52.134;5.424;2023-02-21T04:35:17;102151.16;;;8.17;93.15
72086;BME280;64750;52.134;5.424;2023-02-21T04:37:43;102151.16;;;8.17;93.19
72086;BME280;64750;52.134;5.424;2023-02-21T04:40:13;102157.34;;;8.14;93.20
72086;BME280;64750;52.134;5.424;2023-02-21T04:42:39;102157.28;;;8.16;93.16
72086;BME280;64750;52.134;5.424;2023-02-21T04:45:06;102150.28;;;8.16;93.10
72086;BME280;64750;52.134;5.424;2023-02-21T04:47:32;102151.19;;;8.15;93.52
72086;BME280;64750;52.134;5.424;2023-02-21T04:49:59;102151.19;;;8.15;93.19
72086;BME280;64750;52.134;5.424;2023-02-21T04:52:25;102150.28;;;8.16;93.34
72086;BME280;64750;52.134;5.424;2023-02-21T04:54:52;102154.63;;;8.17;93.28
72086;BME280;64750;52.134;5.424;2023-02-21T04:57:18;102153.78;;;8.17;93.44
72086;BME280;64750;52.134;5.424;2023-02-21T04:59:45;102150.28;;;8.16;93.47
72086;BME280;64750;52.134;5.424;2023-02-21T05:02:11;102153.81;;;8.15;93.75
72086;BME280;64750;52.134;5.424;2023-02-21T05:04:38;102159.06;;;8.15;93.68
72086;BME280;64750;52.134;5.424;2023-02-21T05:07:05;102164.25;;;8.17;93.79
72086;BME280;64750;52.134;5.424;2023-02-21T05:09:32;102156.38;;;8.17;93.43
72086;BME280;64750;52.134;5.424;2023-02-21T05:11:58;102156.44;;;8.15;93.69
72086;BME280;64750;52.134;5.424;2023-02-21T05:14:25;102151.19;;;8.15;93.58
72086;BME280;64750;52.134;5.424;2023-02-21T05:16:51;102161.69;;;8.15;93.76
72086;BME280;64750;52.134;5.424;2023-02-21T05:19:21;102167.81;;;8.14;93.78
72086;BME280;64750;52.134;5.424;2023-02-21T05:21:58;102165.19;;;8.14;93.62
72086;BME280;64750;52.134;5.424;2023-02-21T05:24:26;102162.56;;;8.14;93.53
72086;BME280;64750;52.134;5.424;2023-02-21T05:26:53;102168.59;;;8.16;93.50
72086;BME280;64750;52.134;5.424;2023-02-21T05:29:20;102167.75;;;8.16;93.39
72086;BME280;64750;52.134;5.424;2023-02-21T05:31:46;102173.03;;;8.14;93.44
72086;BME280;64750;52.134;5.424;2023-02-21T05:34:13;102167.81;;;8.14;93.62
72086;BME280;64750;52.134;5.424;2023-02-21T05:36:40;102164.31;;;8.14;93.69
72086;BME280;64750;52.134;5.424;2023-02-21T05:39:08;102162.56;;;8.14;93.89
72086;BME280;64750;52.134;5.424;2023-02-21T05:41:35;102165.25;;;8.13;93.85
72086;BME280;64750;52.134;5.424;2023-02-21T05:44:02;102172.16;;;8.14;93.88
72086;BME280;64750;52.134;5.424;2023-02-21T05:46:34;102170.47;;;8.13;93.85
72086;BME280;64750;52.134;5.424;2023-02-21T05:49:02;102173.03;;;8.14;93.80
72086;BME280;64750;52.134;5.424;2023-02-21T05:51:36;102168.72;;;8.13;93.85
72086;BME280;64750;52.134;5.424;2023-02-21T05:54:05;102170.44;;;8.14;93.93
72086;BME280;64750;52.134;5.424;2023-02-21T05:56:42;102170.44;;;8.14;94.15
72086;BME280;64750;52.134;5.424;2023-02-21T05:59:09;102178.28;;;8.14;93.73
72086;BME280;64750;52.134;5.424;2023-02-21T06:01:36;102183.44;;;8.17;94.20
72086;BME280;64750;52.134;5.424;2023-02-21T06:04:03;102186.91;;;8.18;93.66
72086;BME280;64750;52.134;5.424;2023-02-21T06:06:30;102178.28;;;8.14;93.80
72086;BME280;64750;52.134;5.424;2023-02-21T06:08:56;102166.97;;;8.12;93.95
72086;BME280;64750;52.134;5.424;2023-02-21T06:11:25;102174.84;;;8.12;94.23
72086;BME280;64750;52.134;5.424;2023-02-21T06:13:55;102173.13;;;8.11;94.03
72086;BME280;64750;52.134;5.424;2023-02-21T06:16:22;102182.69;;;8.12;94.16
72086;BME280;64750;52.134;5.424;2023-02-21T06:18:54;102173.16;;;8.10;94.21
72086;BME280;64750;52.134;5.424;2023-02-21T06:21:22;102184.53;;;8.10;93.98
72086;BME280;64750;52.134;5.424;2023-02-21T06:23:48;102174.06;;;8.09;94.21
72086;BME280;64750;52.134;5.424;2023-02-21T06:26:16;102171.44;;;8.10;94.07
72086;BME280;64750;52.134;5.424;2023-02-21T06:28:43;102175.75;;;8.11;94.36
72086;BME280;64750;52.134;5.424;2023-02-21T06:31:10;102179.28;;;8.10;94.21
72086;BME280;64750;52.134;5.424;2023-02-21T06:33:36;102181.03;;;8.10;94.36
72086;BME280;64750;52.134;5.424;2023-02-21T06:36:09;102181.84;;;8.12;94.52
72086;BME280;64750;52.134;5.424;2023-02-21T06:38:37;102180.06;;;8.12;94.16
72086;BME280;64750;52.134;5.424;2023-02-21T06:41:05;102180.91;;;8.14;94.21
72086;BME280;64750;52.134;5.424;2023-02-21T06:43:32;102184.47;;;8.12;94.11
72086;BME280;64750;52.134;5.424;2023-02-21T06:45:59;102180.06;;;8.12;93.99
72086;BME280;64750;52.134;5.424;2023-02-21T06:48:25;102181.91;;;8.10;94.33
72086;BME280;64750;52.134;5.424;2023-02-21T06:50:52;102180.06;;;8.12;94.08
72086;BME280;64750;52.134;5.424;2023-02-21T06:53:18;102179.22;;;8.12;94.30
72086;BME280;64750;52.134;5.424;2023-02-21T06:55:45;102177.50;;;8.11;94.40
72086;BME280;64750;52.134;5.424;2023-02-21T06:58:11;102183.59;;;8.11;94.10
72086;BME280;64750;52.134;5.424;2023-02-21T07:00:37;102181.84;;;8.12;94.41
72086;BME280;64750;52.134;5.424;2023-02-21T07:03:04;102183.69;;;8.08;94.37
72086;BME280;64750;52.134;5.424;2023-02-21T07:05:30;102182.78;;;8.09;94.56
72086;BME280;64750;52.134;5.424;2023-02-21T07:08:02;102188.94;;;8.08;94.72
72086;BME280;64750;52.134;5.424;2023-02-21T07:10:28;102181.91;;;8.10;94.38
72086;BME280;64750;52.134;5.424;2023-02-21T07:12:55;102184.53;;;8.10;94.67
72086;BME280;64750;52.134;5.424;2023-02-21T07:15:21;102181.91;;;8.09;94.88
72086;BME280;64750;52.134;5.424;2023-02-21T07:17:48;102181.91;;;8.10;94.96
72086;BME280;64750;52.134;5.424;2023-02-21T07:20:14;102182.69;;;8.12;94.67
72086;BME280;64750;52.134;5.424;2023-02-21T07:22:41;102182.66;;;8.14;94.64
72086;BME280;64750;52.134;5.424;2023-02-21T07:25:07;102185.31;;;8.12;94.74
72086;BME280;64750;52.134;5.424;2023-02-21T07:27:33;102185.25;;;8.14;94.81
72086;BME280;64750;52.134;5.424;2023-02-21T07:30:00;102173.13;;;8.11;94.64
72086;BME280;64750;52.134;5.424;2023-02-21T07:32:27;102184.41;;;8.13;94.65
72086;BME280;64750;52.134;5.424;2023-02-21T07:34:53;102183.53;;;8.14;94.82
72086;BME280;64750;52.134;5.424;2023-02-21T07:37:19;102180.91;;;8.14;94.80
72086;BME280;64750;52.134;5.424;2023-02-21T07:39:46;102188.75;;;8.14;94.82
72086;BME280;64750;52.134;5.424;2023-02-21T07:42:12;102187.03;;;8.13;94.59
72086;BME280;64750;52.134;5.424;2023-02-21T07:44:39;102200.13;;;8.13;94.60
72086;BME280;64750;52.134;5.424;2023-02-21T07:47:05;102201.03;;;8.12;94.73
72086;BME280;64750;52.134;5.424;2023-02-21T07:49:36;102201.03;;;8.12;94.98
72086;BME280;64750;52.134;5.424;2023-02-21T07:52:03;102199.25;;;8.14;94.82
72086;BME280;64750;52.134;5.424;2023-02-21T07:54:29;102198.34;;;8.14;94.99
72086;BME280;64750;52.134;5.424;2023-02-21T07:56:56;102199.19;;;8.16;95.07
72086;BME280;64750;52.134;5.424;2023-02-21T07:59:22;102203.53;;;8.17;95.03
72086;BME280;64750;52.134;5.424;2023-02-21T08:01:49;102201.75;;;8.17;94.87
72086;BME280;64750;52.134;5.424;2023-02-21T08:04:15;102194.78;;;8.18;94.50
72086;BME280;64750;52.134;5.424;2023-02-21T08:06:47;102200.03;;;8.16;94.85
72086;BME280;64750;52.134;5.424;2023-02-21T08:09:15;102201.75;;;8.17;94.77
72086;BME280;64750;52.134;5.424;2023-02-21T08:11:41;102197.41;;;8.16;94.74
72086;BME280;64750;52.134;5.424;2023-02-21T08:14:07;102202.63;;;8.18;94.99
72086;BME280;64750;52.134;5.424;2023-02-21T08:16:34;102201.75;;;8.17;95.18
72086;BME280;64750;52.134;5.424;2023-02-21T08:19:00;102199.19;;;8.16;94.93
72086;BME280;64750;52.134;5.424;2023-02-21T08:21:27;102196.56;;;8.16;94.91
72086;BME280;64750;52.134;5.424;2023-02-21T08:23:53;102192.22;;;8.15;94.77
72086;BME280;64750;52.134;5.424;2023-02-21T08:26:21;102199.25;;;8.14;95.06
72086;BME280;64750;52.134;5.424;2023-02-21T08:28:47;102188.72;;;8.16;94.92
72086;BME280;64750;52.134;5.424;2023-02-21T08:31:13;102187.75;;;8.18;95.36
72086;BME280;64750;52.134;5.424;2023-02-21T08:33:40;102190.34;;;8.20;95.06
72086;BME280;64750;52.134;5.424;2023-02-21T08:36:07;102194.72;;;8.19;95.39
72086;BME280;64750;52.134;5.424;2023-02-21T08:38:33;102186.91;;;8.18;95.13
72086;BME280;64750;52.134;5.424;2023-02-21T08:40:59;102190.47;;;8.15;94.95
72086;BME280;64750;52.134;5.424;2023-02-21T08:43:27;102183.44;;;8.17;95.28
72086;BME280;64750;52.134;5.424;2023-02-21T08:45:54;102184.31;;;8.18;95.31
72086;BME280;64750;52.134;5.424;2023-02-21T08:48:20;102181.63;;;8.19;95.30
72086;BME280;64750;52.134;5.424;2023-02-21T08:50:47;102186.88;;;8.19;95.37
72086;BME280;64750;52.134;5.424;2023-02-21T08:53:13;102185.16;;;8.18;95.49
72086;BME280;64750;52.134;5.424;2023-02-21T08:55:40;102195.63;;;8.18;95.51
72086;BME280;64750;52.134;5.424;2023-02-21T08:58:09;102189.50;;;8.19;95.27
72086;BME280;64750;52.134;5.424;2023-02-21T09:00:36;102185.09;;;8.20;95.32
72086;BME280;64750;52.134;5.424;2023-02-21T09:03:03;102185.16;;;8.18;95.49
72086;BME280;64750;52.134;5.424;2023-02-21T09:05:30;102177.28;;;8.18;95.24
72086;BME280;64750;52.134;5.424;2023-02-21T09:07:59;102183.44;;;8.17;95.49
72086;BME280;64750;52.134;5.424;2023-02-21T09:10:31;102179.06;;;8.18;95.55
72086;BME280;64750;52.134;5.424;2023-02-21T09:13:01;102177.38;;;8.15;95.73
72086;BME280;64750;52.134;5.424;2023-02-21T09:15:28;102178.28;;;8.14;95.77
72086;BME280;64750;52.134;5.424;2023-02-21T09:17:55;102180.84;;;8.16;95.79
72086;BME280;64750;52.134;5.424;2023-02-21T09:20:24;102175.63;;;8.16;95.87
72086;BME280;64750;52.134;5.424;2023-02-21T09:22:51;102171.22;;;8.16;95.53
72086;BME280;64750;52.134;5.424;2023-02-21T09:25:20;102170.44;;;8.14;95.87
72086;BME280;64750;52.134;5.424;2023-02-21T09:27:48;102169.59;;;8.12;95.91
72086;BME280;64750;52.134;5.424;2023-02-21T09:30:20;102169.53;;;8.15;95.93
72086;BME280;64750;52.134;5.424;2023-02-21T09:32:49;102171.16;;;8.19;95.98
72086;BME280;64750;52.134;5.424;2023-02-21T09:35:16;102173.81;;;8.18;95.69
72086;BME280;64750;52.134;5.424;2023-02-21T09:37:44;102163.34;;;8.18;95.60
72086;BME280;64750;52.134;5.424;2023-02-21T09:43:33;102152.88;;;8.18;95.67
72086;BME280;64750;52.134;5.424;2023-02-21T09:46:04;102158.91;;;8.20;95.97
72086;BME280;64750;52.134;5.424;2023-02-21T09:48:32;102162.41;;;8.20;96.05
72086;BME280;64750;52.134;5.424;2023-02-21T09:51:02;102162.34;;;8.22;95.86
72086;BME280;64750;52.134;5.424;2023-02-21T09:53:41;102164.09;;;8.21;95.92
72086;BME280;64750;52.134;5.424;2023-02-21T09:56:19;102161.47;;;8.21;95.91
72086;BME280;64750;52.134;5.424;2023-02-21T09:58:48;102152.72;;;8.23;95.50
72086;BME280;64750;52.134;5.424;2023-02-21T10:01:28;102152.66;;;8.24;95.69
72086;BME280;64750;52.134;5.424;2023-02-21T10:04:20;102148.31;;;8.25;95.89
72086;BME280;64750;52.134;5.424;2023-02-21T10:06:56;102152.66;;;8.26;95.90
72086;BME280;64750;52.134;5.424;2023-02-21T10:09:45;102152.66;;;8.26;95.86
72086;BME280;64750;52.134;5.424;2023-02-21T10:12:33;102144.69;;;8.29;95.87
72086;BME280;64750;52.134;5.424;2023-02-21T10:20:35;102150.78;;;8.29;95.74
72086;BME280;64750;52.134;5.424;2023-02-21T10:23:14;102148.97;;;8.31;95.83
72086;BME280;64750;52.134;5.424;2023-02-21T10:25:45;102150.75;;;8.31;95.66
72086;BME280;64750;52.134;5.424;2023-02-21T10:28:20;102158.63;;;8.31;95.53
72086;BME280;64750;52.134;5.424;2023-02-21T10:30:49;102162.03;;;8.33;95.62
72086;BME280;64750;52.134;5.424;2023-02-21T10:33:17;102153.28;;;8.34;95.76
72086;BME280;64750;52.134;5.424;2023-02-21T10:35:43;102164.59;;;8.34;95.52
72086;BME280;64750;52.134;5.424;2023-02-21T10:38:17;102155.88;;;8.34;95.69
72086;BME280;64750;52.134;5.424;2023-02-21T10:40:49;102159.34;;;8.36;95.83
72086;BME280;64750;52.134;5.424;2023-02-21T10:43:18;102155.75;;;8.38;95.54
72086;BME280;64750;52.134;5.424;2023-02-21T10:46:07;102147.97;;;8.37;95.65
72086;BME280;64750;52.134;5.424;2023-02-21T10:48:37;102160.94;;;8.40;95.57
72086;BME280;64750;52.134;5.424;2023-02-21T10:51:35;102154.81;;;8.41;95.63
72086;BME280;64750;52.134;5.424;2023-02-21T10:54:22;102154.72;;;8.44;95.83
72086;BME280;64750;52.134;5.424;2023-02-21T10:56:51;102160.81;;;8.45;95.84
72086;BME280;64750;52.134;5.424;2023-02-21T10:59:31;102164.41;;;8.42;95.53
72086;BME280;64750;52.134;5.424;2023-02-21T11:02:00;102158.22;;;8.43;95.67
72086;BME280;64750;52.134;5.424;2023-02-21T11:04:33;102152.13;;;8.43;95.39
72086;BME280;64750;52.134;5.424;2023-02-21T11:07:03;102155.59;;;8.43;95.47
72086;BME280;64750;52.134;5.424;2023-02-21T11:09:41;102158.22;;;8.43;95.44
72086;BME280;64750;52.134;5.424;2023-02-21T11:14:42;102149.47;;;8.44;95.61
72086;BME280;64750;52.134;5.424;2023-02-21T11:17:34;102147.75;;;8.43;95.54
72086;BME280;64750;52.134;5.424;2023-02-21T11:20:04;102151.19;;;8.45;95.36
72086;BME280;64750;52.134;5.424;2023-02-21T11:22:42;102146.81;;;8.47;95.50
72086;BME280;64750;52.134;5.424;2023-02-21T11:27:43;102150.31;;;8.46;95.41
72086;BME280;64750;52.134;5.424;2023-02-21T11:30:19;102148.56;;;8.47;95.42
72086;BME280;64750;52.134;5.424;2023-02-21T11:32:51;102150.22;;;8.49;95.68
72086;BME280;64750;52.134;5.424;2023-02-21T11:35:32;102141.47;;;8.50;95.38
72086;BME280;64750;52.134;5.424;2023-02-21T11:38:02;102144.94;;;8.51;95.15
72086;BME280;64750;52.134;5.424;2023-02-21T11:43:18;102139.72;;;8.49;95.22
72086;BME280;64750;52.134;5.424;2023-02-21T11:46:54;102141.47;;;8.50;95.43
72086;BME280;64750;52.134;5.424;2023-02-21T11:51:45;102137.03;;;8.52;95.36
72086;BME280;64750;52.134;5.424;2023-02-21T11:54:14;102132.66;;;8.53;95.36
72086;BME280;64750;52.134;5.424;2023-02-21T11:56:46;102131.81;;;8.52;95.27
72086;BME280;64750;52.134;5.424;2023-02-21T12:14:33;102122.28;;;8.50;95.25
72086;BME280;64750;52.134;5.424;2023-02-21T12:19:58;102127.53;;;8.48;95.21
72086;BME280;64750;52.134;5.424;2023-02-21T12:25:22;102123.97;;;8.51;95.08
72086;BME280;64750;52.134;5.424;2023-02-21T12:28:12;102115.19;;;8.52;95.39
72086;BME280;64750;52.134;5.424;2023-02-21T12:41:40;102107.53;;;8.44;94.91
72086;BME280;64750;52.134;5.424;2023-02-21T12:44:18;102107.53;;;8.46;95.44
72086;BME280;64750;52.134;5.424;2023-02-21T12:49:59;102100.44;;;8.49;95.41
72086;BME280;64750;52.134;5.424;2023-02-21T12:52:31;102095.19;;;8.49;95.22
72086;BME280;64750;52.134;5.424;2023-02-21T13:00:35;102091.66;;;8.50;95.13
72086;BME280;64750;52.134;5.424;2023-02-21T13:14:08;102077.56;;;8.54;95.27
72086;BME280;64750;52.134;5.424;2023-02-21T13:16:35;102080.13;;;8.56;95.45
72086;BME280;64750;52.134;5.424;2023-02-21T13:19:05;102072.25;;;8.56;95.52
72086;BME280;64750;52.134;5.424;2023-02-21T13:27:24;102080.09;;;8.58;95.28
72086;BME280;64750;52.134;5.424;2023-02-21T13:30:10;102067.78;;;8.60;95.55
72086;BME280;64750;52.134;5.424;2023-02-21T13:32:39;102067.00;;;8.58;95.45
72086;BME280;64750;52.134;5.424;2023-02-21T13:35:07;102066.94;;;8.59;95.47
72086;BME280;64750;52.134;5.424;2023-02-21T13:37:43;102066.06;;;8.59;95.13
72086;BME280;64750;52.134;5.424;2023-02-21T13:40:21;102065.28;;;8.57;95.40
72086;BME280;64750;52.134;5.424;2023-02-21T13:42:59;102056.53;;;8.58;95.24
72086;BME280;64750;52.134;5.424;2023-02-21T13:45:27;102048.59;;;8.59;95.24
72086;BME280;64750;52.134;5.424;2023-02-21T13:55:36;102045.16;;;8.57;95.18
72086;BME280;64750;52.134;5.424;2023-02-21T14:02:59;102043.31;;;8.61;95.43
72086;BME280;64750;52.134;5.424;2023-02-21T14:08:35;102039.72;;;8.63;95.41
72086;BME280;64750;52.134;5.424;2023-02-21T14:13:45;102037.03;;;8.65;95.11
72086;BME280;64750;52.134;5.424;2023-02-21T14:19:06;102039.59;;;8.66;94.83
72086;BME280;64750;52.134;5.424;2023-02-21T14:21:43;102044.00;;;8.66;94.90
72086;BME280;64750;52.134;5.424;2023-02-21T14:24:25;102038.78;;;8.66;94.97
72086;BME280;64750;52.134;5.424;2023-02-21T14:32:32;102036.16;;;8.66;95.07
72086;BME280;64750;52.134;5.424;2023-02-21T14:35:12;102033.53;;;8.66;94.69
72086;BME280;64750;52.134;5.424;2023-02-21T14:37:53;102033.47;;;8.67;94.72
72086;BME280;64750;52.134;5.424;2023-02-21T15:13:00;102021.50;;;8.59;94.63
72086;BME280;64750;52.134;5.424;2023-02-21T15:15:34;102020.56;;;8.61;94.27
72086;BME280;64750;52.134;5.424;2023-02-21T15:18:09;102019.84;;;8.58;93.94
72086;BME280;64750;52.134;5.424;2023-02-21T15:20:39;102014.63;;;8.56;94.09
72086;BME280;64750;52.134;5.424;2023-02-21T15:25:35;102010.06;;;8.61;94.24
72086;BME280;64750;52.134;5.424;2023-02-21T15:28:05;102011.91;;;8.59;94.18
72086;BME280;64750;52.134;5.424;2023-02-21T15:30:35;102011.97;;;8.58;94.19
72086;BME280;64750;52.134;5.424;2023-02-21T15:33:11;102012.09;;;8.53;93.99
72086;BME280;64750;52.134;5.424;2023-02-21T15:35:45;102012.09;;;8.53;93.73
72086;BME280;64750;52.134;5.424;2023-02-21T15:38:29;102012.88;;;8.57;93.74
72086;BME280;64750;52.134;5.424;2023-02-21T15:41:01;102019.91;;;8.54;93.63
72086;BME280;64750;52.134;5.424;2023-02-21T15:43:36;102007.72;;;8.53;93.66
72086;BME280;64750;52.134;5.424;2023-02-21T15:46:05;102005.09;;;8.53;93.82
72086;BME280;64750;52.134;5.424;2023-02-21T15:48:33;102012.00;;;8.56;93.80
72086;BME280;64750;52.134;5.424;2023-02-21T15:51:03;102008.53;;;8.56;93.21
72086;BME280;64750;52.134;5.424;2023-02-21T15:53:31;102004.19;;;8.54;93.06
72086;BME280;64750;52.134;5.424;2023-02-21T15:56:20;102005.00;;;8.57;93.27
72086;BME280;64750;52.134;5.424;2023-02-21T16:01:34;102006.09;;;8.49;93.04
72086;BME280;64750;52.134;5.424;2023-02-21T16:04:18;102007.81;;;8.50;93.16
72086;BME280;64750;52.134;5.424;2023-02-21T16:07:06;102009.63;;;8.48;93.17
72086;BME280;64750;52.134;5.424;2023-02-21T16:09:44;102000.03;;;8.49;93.25
72086;BME280;64750;52.134;5.424;2023-02-21T16:14:40;101995.75;;;8.46;92.83
72086;BME280;64750;52.134;5.424;2023-02-21T16:20:21;102002.84;;;8.41;92.75
72086;BME280;64750;52.134;5.424;2023-02-21T16:22:49;101997.63;;;8.41;92.79
72086;BME280;64750;52.134;5.424;2023-02-21T16:25:33;101992.38;;;8.41;92.63
72086;BME280;64750;52.134;5.424;2023-02-21T16:27:59;101990.72;;;8.38;92.43